Calingasta, Argentina
Current Conditions -  °F | °C
As of 9:00 AM on Sunday 28 Dec 2014 (Local Time) from SAME Reporting Station
Clear Clear  
Wind Chill: 79°   Ceiling: Unl
Heat Index: 79°   Visibility: 6mi
Dew Point: 54°   Wind: 5mph
Humidity: 42%   Direction: 360°N
Pressure: 29.85"   Gusts: NA
Location:  31.32°S, 69.42°W
Report Text: SAME 281200Z 36004KT CAVOK 26/12 Q1011
Loading
Personal Weather Stations






























Interactive Weather Map New forecast layout! Learn more

10-Day Weather Forecast

Advertisements
Track Severe Weather on mobile